createdAt,value
2022-11-15T00:01:31.409Z,8.49
2022-11-15T00:04:17.092Z,8.36
2022-11-15T00:07:02.956Z,8.40
2022-11-15T00:09:49.001Z,8.31
2022-11-15T00:12:34.862Z,8.49
2022-11-15T00:15:20.632Z,8.70
2022-11-15T00:18:06.370Z,8.67
2022-11-15T00:20:52.072Z,8.82
2022-11-15T00:23:38.248Z,8.97
2022-11-15T00:26:23.982Z,8.69
2022-11-15T00:29:09.999Z,8.70
2022-11-15T00:31:55.685Z,8.47
2022-11-15T00:34:41.413Z,8.56
2022-11-15T00:37:27.083Z,8.62
2022-11-15T00:40:13.875Z,8.60
2022-11-15T00:43:00.012Z,8.45
2022-11-15T00:45:45.592Z,8.58
2022-11-15T00:48:32.384Z,8.97
2022-11-15T00:51:18.169Z,8.83
2022-11-15T00:54:04.021Z,9.21
2022-11-15T00:56:49.868Z,9.19
2022-11-15T00:59:35.678Z,9.11
2022-11-15T01:02:21.479Z,9.01
2022-11-15T01:05:07.486Z,8.83
2022-11-15T01:07:54.139Z,8.98
2022-11-15T01:10:40.211Z,9.01
2022-11-15T01:13:26.017Z,8.69
2022-11-15T01:16:17.547Z,9.07
2022-11-15T01:19:03.348Z,8.77
2022-11-15T01:21:52.117Z,8.71
2022-11-15T01:24:38.112Z,9.06
2022-11-15T01:27:23.764Z,9.33
2022-11-15T01:30:09.859Z,9.23
2022-11-15T01:32:55.723Z,8.91
2022-11-15T01:35:41.482Z,9.10
2022-11-15T01:38:27.179Z,9.15
2022-11-15T01:41:20.382Z,8.88
2022-11-15T01:44:41.007Z,8.73
2022-11-15T01:47:29.165Z,8.98
2022-11-15T01:50:24.834Z,8.91
2022-11-15T01:53:11.754Z,9.16
2022-11-15T01:55:57.488Z,8.87
2022-11-15T01:58:43.492Z,8.90
2022-11-15T02:01:29.412Z,9.29
2022-11-15T02:04:21.630Z,9.41
2022-11-15T02:07:07.768Z,9.42
2022-11-15T02:09:53.555Z,9.47
2022-11-15T02:12:39.418Z,9.05
2022-11-15T02:15:26.265Z,9.16
2022-11-15T02:18:24.579Z,8.90
2022-11-15T02:21:20.472Z,8.99
2022-11-15T02:24:20.919Z,8.94
2022-11-15T02:27:29.509Z,9.29
2022-11-15T02:30:34.052Z,8.74
2022-11-15T02:33:22.384Z,8.22
2022-11-15T02:36:12.626Z,8.32
2022-11-15T02:39:08.679Z,8.41
2022-11-15T02:42:04.524Z,8.69
2022-11-15T02:44:50.614Z,8.86
2022-11-15T02:47:42.218Z,8.46
2022-11-15T02:50:29.435Z,8.55
2022-11-15T02:53:16.018Z,8.72
2022-11-15T02:56:01.754Z,8.89
2022-11-15T02:59:09.026Z,9.17
2022-11-15T03:02:03.595Z,9.24
2022-11-15T03:04:53.921Z,9.30
2022-11-15T03:08:02.697Z,9.28
2022-11-15T03:11:20.922Z,8.90
2022-11-15T03:14:21.119Z,9.00
2022-11-15T03:17:15.097Z,8.71
2022-11-15T03:20:02.515Z,9.03
2022-11-15T03:22:48.650Z,9.29
2022-11-15T03:25:34.543Z,9.24
2022-11-15T03:28:25.617Z,9.51
2022-11-15T03:31:31.312Z,9.53
2022-11-15T03:34:56.041Z,9.23
2022-11-15T03:37:47.166Z,9.26
2022-11-15T03:40:56.741Z,9.53
2022-11-15T03:44:02.669Z,9.65
2022-11-15T03:46:49.329Z,9.55
2022-11-15T03:49:36.485Z,9.53
2022-11-15T03:52:22.567Z,9.50
2022-11-15T03:55:09.542Z,8.94
2022-11-15T03:57:57.640Z,9.41
2022-11-15T04:00:43.341Z,9.64
2022-11-15T04:03:29.734Z,9.43
2022-11-15T04:06:15.475Z,9.38
2022-11-15T04:09:01.249Z,9.59
2022-11-15T04:11:46.928Z,9.53
2022-11-15T04:14:32.691Z,9.52
2022-11-15T04:17:18.496Z,9.48
2022-11-15T04:20:24.122Z,9.73
2022-11-15T04:23:38.505Z,9.28
2022-11-15T04:26:24.522Z,9.40
2022-11-15T04:29:28.735Z,9.52
2022-11-15T04:32:14.679Z,9.40
2022-11-15T04:35:00.577Z,9.71
2022-11-15T04:37:49.327Z,8.91
2022-11-15T04:40:36.014Z,9.37
2022-11-15T04:43:22.146Z,9.59
2022-11-15T04:46:07.843Z,9.43
2022-11-15T04:48:58.298Z,9.43
2022-11-15T04:51:44.904Z,8.76
2022-11-15T04:54:30.990Z,9.11
2022-11-15T04:57:16.577Z,9.28
2022-11-15T05:00:04.070Z,9.79
2022-11-15T05:03:08.748Z,9.84
2022-11-15T05:05:54.591Z,9.29
2022-11-15T05:08:40.301Z,9.62
2022-11-15T05:11:26.143Z,9.45
2022-11-15T05:14:11.851Z,9.78
2022-11-15T05:16:57.396Z,9.48
2022-11-15T05:19:43.027Z,9.49
2022-11-15T05:22:28.792Z,9.72
2022-11-15T05:25:14.654Z,9.81
2022-11-15T05:28:00.373Z,9.67
2022-11-15T05:30:46.181Z,9.26
2022-11-15T05:33:32.839Z,9.79
2022-11-15T05:36:21.441Z,9.53
2022-11-15T05:39:09.006Z,9.40
2022-11-15T05:42:21.014Z,9.71
2022-11-15T05:45:07.624Z,9.84
2022-11-15T05:47:53.419Z,9.76
2022-11-15T05:50:39.834Z,9.94
2022-11-15T05:53:25.571Z,9.96
2022-11-15T05:56:11.194Z,9.48
2022-11-15T05:58:59.699Z,9.81
2022-11-15T06:01:45.876Z,9.79
2022-11-15T06:04:31.904Z,9.71
2022-11-15T06:07:17.621Z,9.76
2022-11-15T06:10:03.925Z,9.82
2022-11-15T06:13:05.793Z,9.59
2022-11-15T06:15:51.511Z,9.76
2022-11-15T06:18:37.346Z,10.06
2022-11-15T06:21:23.017Z,9.13
2022-11-15T06:24:08.920Z,9.70
2022-11-15T06:26:55.131Z,9.68
2022-11-15T06:29:40.747Z,10.04
2022-11-15T06:32:26.645Z,10.12
2022-11-15T06:35:12.339Z,9.71
2022-11-15T06:38:03.472Z,10.03
2022-11-15T06:40:49.432Z,9.80
2022-11-15T06:43:35.581Z,9.22
2022-11-15T06:46:21.487Z,9.16
2022-11-15T06:49:09.812Z,9.14
2022-11-15T06:51:56.008Z,9.52
2022-11-15T06:54:41.904Z,9.63
2022-11-15T06:57:27.673Z,10.04
2022-11-15T07:00:14.616Z,9.80
2022-11-15T07:03:03.499Z,9.11
2022-11-15T07:05:54.350Z,9.53
2022-11-15T07:08:42.572Z,9.35
2022-11-15T07:11:28.613Z,9.31
2022-11-15T07:14:14.810Z,9.10
2022-11-15T07:17:00.904Z,10.10
2022-11-15T07:19:46.804Z,9.58
2022-11-15T07:22:32.577Z,8.88
2022-11-15T07:25:18.334Z,9.70
2022-11-15T07:28:04.640Z,9.52
2022-11-15T07:30:51.080Z,8.94
2022-11-15T07:33:37.184Z,9.42
2022-11-15T07:36:22.876Z,9.67
2022-11-15T07:39:08.481Z,9.84
2022-11-15T07:42:14.012Z,10.18
2022-11-15T07:45:00.133Z,9.59
2022-11-15T07:47:49.114Z,10.30
2022-11-15T07:50:35.240Z,10.83
2022-11-15T07:53:20.978Z,10.92
2022-11-15T07:56:08.438Z,11.14
2022-11-15T07:58:54.233Z,10.96
2022-11-15T08:01:39.969Z,11.15
2022-11-15T08:04:26.064Z,10.59
2022-11-15T08:07:11.935Z,11.21
2022-11-15T08:09:58.507Z,11.72
2022-11-15T08:12:44.275Z,11.30
2022-11-15T08:15:30.603Z,10.76
2022-11-15T08:18:17.217Z,10.78
2022-11-15T08:21:02.893Z,10.92
2022-11-15T08:23:48.609Z,10.88
2022-11-15T08:26:34.226Z,10.37
2022-11-15T08:29:20.027Z,10.38
2022-11-15T08:32:05.911Z,9.96
2022-11-15T08:34:51.642Z,9.90
2022-11-15T08:37:37.327Z,9.37
2022-11-15T08:40:24.040Z,9.51
2022-11-15T08:43:10.075Z,9.23
2022-11-15T08:45:58.542Z,10.44
2022-11-15T08:48:44.512Z,10.91
2022-11-15T08:51:30.380Z,10.70
2022-11-15T08:54:15.850Z,10.50
2022-11-15T08:57:01.603Z,10.59
2022-11-15T08:59:47.419Z,10.17
2022-11-15T09:02:33.397Z,10.86
2022-11-15T09:05:19.727Z,11.00
2022-11-15T09:08:32.947Z,10.03
2022-11-15T09:11:17.487Z,10.68
2022-11-15T09:14:03.298Z,10.82
2022-11-15T09:16:49.122Z,11.11
2022-11-15T09:19:34.831Z,11.31
2022-11-15T09:22:20.539Z,10.97
2022-11-15T09:25:10.040Z,11.16
2022-11-15T09:27:57.854Z,11.57
2022-11-15T09:30:43.649Z,11.20
2022-11-15T09:33:29.945Z,11.10
2022-11-15T09:36:17.792Z,11.84
2022-11-15T09:39:03.798Z,11.71
2022-11-15T09:42:11.863Z,10.66
2022-11-15T09:45:30.712Z,11.74
2022-11-15T09:48:36.870Z,12.27
2022-11-15T09:51:06.181Z,12.57
2022-11-15T09:56:34.044Z,12.31
2022-11-15T09:59:23.252Z,12.66
2022-11-15T10:02:09.461Z,12.26
2022-11-15T10:04:37.669Z,11.67
2022-11-15T10:07:19.811Z,11.65
2022-11-15T10:10:17.169Z,11.57
2022-11-15T10:12:47.570Z,11.55
2022-11-15T10:15:16.365Z,9.90
2022-11-15T10:17:56.384Z,10.59
2022-11-15T10:20:26.079Z,11.07
2022-11-15T10:22:59.774Z,11.89
2022-11-15T10:25:32.208Z,11.83
2022-11-15T10:28:18.918Z,11.38
2022-11-15T10:30:48.291Z,11.72
2022-11-15T10:33:24.241Z,11.23
2022-11-15T10:36:10.199Z,11.59
2022-11-15T10:38:49.677Z,11.16
2022-11-15T10:41:27.509Z,11.83
2022-11-15T10:44:19.757Z,12.10
2022-11-15T10:46:51.458Z,11.73
2022-11-15T10:49:23.269Z,11.72
2022-11-15T10:51:55.258Z,11.66
2022-11-15T10:54:26.465Z,12.06
2022-11-15T10:56:55.363Z,11.01
2022-11-15T10:59:29.439Z,11.96
2022-11-15T11:01:57.035Z,12.36
2022-11-15T11:04:24.451Z,12.41
2022-11-15T11:06:56.611Z,11.09
2022-11-15T11:09:37.023Z,11.40
2022-11-15T11:12:05.903Z,11.22
2022-11-15T11:14:34.691Z,10.93
2022-11-15T11:17:14.123Z,11.42
2022-11-15T11:20:04.619Z,10.31
2022-11-15T11:22:46.035Z,11.46
2022-11-15T11:25:22.172Z,10.90
2022-11-15T11:28:00.694Z,11.70
2022-11-15T11:30:54.149Z,9.76
2022-11-15T11:33:33.650Z,10.07
2022-11-15T11:36:19.701Z,11.01
2022-11-15T11:39:19.227Z,11.26
2022-11-15T11:42:19.177Z,11.21
2022-11-15T11:45:14.583Z,11.39
2022-11-15T11:47:48.580Z,11.38
2022-11-15T11:50:24.488Z,11.60
2022-11-15T11:53:04.598Z,11.69
2022-11-15T11:55:42.482Z,11.28
2022-11-15T11:58:22.950Z,10.99
2022-11-15T12:00:56.356Z,11.12
2022-11-15T12:03:45.340Z,11.53
2022-11-15T12:06:43.983Z,11.43
2022-11-15T12:09:18.590Z,11.66
2022-11-15T12:11:57.563Z,11.63
2022-11-15T12:14:43.976Z,11.71
2022-11-15T12:17:12.240Z,11.94
2022-11-15T12:19:40.474Z,11.89
2022-11-15T12:22:21.841Z,11.97
2022-11-15T12:25:18.490Z,11.71
2022-11-15T12:27:51.796Z,11.37
2022-11-15T12:30:23.085Z,11.55
2022-11-15T12:32:59.287Z,11.07
2022-11-15T12:35:35.804Z,11.16
2022-11-15T12:38:03.359Z,11.30
2022-11-15T12:40:38.965Z,11.50
2022-11-15T12:43:15.646Z,11.49
2022-11-15T12:45:45.080Z,11.50
2022-11-15T12:48:18.545Z,11.55
2022-11-15T12:50:55.281Z,11.80
2022-11-15T12:53:28.748Z,11.82
2022-11-15T12:56:05.465Z,11.39
2022-11-15T12:58:47.234Z,11.68
2022-11-15T13:01:40.993Z,11.78
2022-11-15T13:04:20.448Z,11.48
2022-11-15T13:06:52.364Z,11.80
2022-11-15T13:09:34.943Z,11.83
2022-11-15T13:12:03.138Z,11.94
2022-11-15T13:14:43.531Z,12.22
2022-11-15T13:17:20.084Z,11.78
2022-11-15T13:19:48.995Z,11.99
2022-11-15T13:22:35.658Z,11.93
2022-11-15T13:25:03.003Z,10.39
2022-11-15T13:27:30.564Z,10.64
2022-11-15T13:29:57.928Z,10.51
2022-11-15T13:32:25.317Z,11.40
2022-11-15T13:34:53.847Z,11.54
2022-11-15T13:37:21.139Z,11.30
2022-11-15T13:39:49.254Z,11.17
2022-11-15T13:42:21.295Z,11.18
2022-11-15T13:44:59.349Z,11.64
2022-11-15T13:47:28.411Z,11.93
2022-11-15T13:49:58.045Z,11.67
2022-11-15T13:52:32.146Z,11.48
2022-11-15T13:55:12.060Z,11.43
2022-11-15T13:57:56.880Z,9.84
2022-11-15T14:00:35.391Z,10.01
2022-11-15T14:03:08.260Z,10.66
2022-11-15T14:05:35.672Z,10.20
2022-11-15T14:08:21.649Z,9.78
2022-11-15T14:10:49.027Z,10.62
2022-11-15T14:13:30.312Z,9.62
2022-11-15T14:16:16.979Z,10.62
2022-11-15T14:18:47.261Z,10.80
2022-11-15T14:21:14.628Z,11.15
2022-11-15T14:23:42.095Z,11.20
2022-11-15T14:26:33.493Z,10.60
2022-11-15T14:29:29.364Z,10.31
2022-11-15T14:32:13.335Z,10.79
2022-11-15T14:34:40.740Z,10.65
2022-11-15T14:37:23.113Z,10.58
2022-11-15T14:39:50.600Z,10.67
2022-11-15T14:42:18.807Z,10.76
2022-11-15T14:44:46.527Z,10.92
2022-11-15T14:47:14.005Z,10.26
2022-11-15T14:49:41.645Z,10.97
2022-11-15T14:52:20.031Z,10.88
2022-11-15T14:54:47.643Z,10.01
2022-11-15T14:57:14.992Z,10.49
2022-11-15T14:59:42.359Z,10.95
2022-11-15T15:02:16.471Z,10.85
2022-11-15T15:04:43.839Z,10.87
2022-11-15T15:07:11.546Z,11.08
2022-11-15T15:09:38.967Z,11.19
2022-11-15T15:12:12.499Z,10.60
2022-11-15T15:14:40.152Z,11.00
2022-11-15T15:17:07.499Z,11.16
2022-11-15T15:19:34.838Z,11.02
2022-11-15T15:22:02.457Z,10.93
2022-11-15T15:24:29.821Z,11.32
2022-11-15T15:26:57.174Z,11.24
2022-11-15T15:29:24.780Z,11.40
2022-11-15T15:31:52.144Z,11.54
2022-11-15T15:34:19.471Z,11.38
2022-11-15T15:36:47.170Z,11.10
2022-11-15T15:39:14.554Z,11.04
2022-11-15T15:41:41.909Z,11.47
2022-11-15T15:44:09.519Z,11.45
2022-11-15T15:46:36.927Z,11.18
2022-11-15T15:49:04.453Z,10.99
2022-11-15T15:51:32.152Z,11.27
2022-11-15T15:53:59.503Z,10.81
2022-11-15T15:56:26.881Z,11.03
2022-11-15T15:58:56.417Z,11.20
2022-11-15T16:01:23.845Z,10.92
2022-11-15T16:03:51.451Z,11.24
2022-11-15T16:06:36.708Z,11.21
2022-11-15T16:09:20.644Z,11.43
2022-11-15T16:11:48.394Z,11.10
2022-11-15T16:14:15.982Z,11.32
2022-11-15T16:16:43.395Z,10.87
2022-11-15T16:19:10.805Z,10.69
2022-11-15T16:21:38.433Z,11.00
2022-11-15T16:24:06.318Z,10.82
2022-11-15T16:26:33.671Z,10.92
2022-11-15T16:29:01.279Z,10.77
2022-11-15T16:31:28.645Z,11.14
2022-11-15T16:33:56.004Z,10.59
2022-11-15T16:36:29.946Z,10.40
2022-11-15T16:38:58.763Z,10.58
2022-11-15T16:41:26.414Z,10.77
2022-11-15T16:43:54.008Z,11.09
2022-11-15T16:46:22.585Z,11.14
2022-11-15T16:48:50.272Z,11.32
2022-11-15T16:51:17.737Z,11.02
2022-11-15T16:53:45.133Z,10.98
2022-11-15T16:56:27.348Z,11.24
2022-11-15T16:58:55.361Z,11.26
2022-11-15T17:01:25.796Z,11.28
2022-11-15T17:03:53.265Z,11.08
2022-11-15T17:06:21.306Z,11.23
2022-11-15T17:08:49.049Z,11.26
2022-11-15T17:11:18.464Z,11.58
2022-11-15T17:13:45.869Z,11.21
2022-11-15T17:16:14.559Z,11.39
2022-11-15T17:18:42.336Z,11.40
2022-11-15T17:21:17.143Z,10.99
2022-11-15T17:23:44.776Z,11.06
2022-11-15T17:26:28.976Z,11.21
2022-11-15T17:28:59.253Z,11.34
2022-11-15T17:31:27.097Z,11.23
2022-11-15T17:33:54.505Z,11.13
2022-11-15T17:36:22.853Z,11.03
2022-11-15T17:38:56.578Z,11.19
2022-11-15T17:41:26.892Z,11.20
2022-11-15T17:43:55.484Z,11.53
2022-11-15T17:46:22.859Z,11.18
2022-11-15T17:48:50.444Z,10.94
2022-11-15T17:51:18.264Z,11.06
2022-11-15T17:53:46.795Z,11.16
2022-11-15T17:56:18.477Z,11.03
2022-11-15T17:58:53.416Z,10.60
2022-11-15T18:01:22.307Z,11.05
2022-11-15T18:03:50.015Z,11.30
2022-11-15T18:06:17.676Z,11.39
2022-11-15T18:08:46.039Z,11.37
2022-11-15T18:11:19.908Z,11.37
2022-11-15T18:13:52.020Z,11.56
2022-11-15T18:16:22.241Z,11.39
2022-11-15T18:18:49.694Z,10.85
2022-11-15T18:21:18.713Z,11.09
2022-11-15T18:23:46.384Z,11.23
2022-11-15T18:26:14.809Z,11.36
2022-11-15T18:28:45.618Z,11.33
2022-11-15T18:31:14.273Z,11.22
2022-11-15T18:33:42.936Z,11.43
2022-11-15T18:36:12.469Z,11.36
2022-11-15T18:38:40.177Z,11.54
2022-11-15T18:41:11.294Z,11.43
2022-11-15T18:43:39.027Z,11.45
2022-11-15T18:46:09.159Z,11.33
2022-11-15T18:48:37.518Z,11.35
2022-11-15T18:51:08.134Z,10.64
2022-11-15T18:53:36.306Z,10.90
2022-11-15T18:56:14.010Z,11.25
2022-11-15T18:58:45.183Z,11.34
2022-11-15T19:01:17.358Z,11.29
2022-11-15T19:03:46.675Z,11.30
2022-11-15T19:06:15.579Z,11.38
2022-11-15T19:08:43.484Z,11.49
2022-11-15T19:11:13.382Z,11.37
2022-11-15T19:13:40.928Z,11.42
2022-11-15T19:16:09.565Z,11.19
2022-11-15T19:18:37.163Z,11.33
2022-11-15T19:21:06.570Z,11.27
2022-11-15T19:23:34.986Z,10.98
2022-11-15T19:26:04.088Z,11.21
2022-11-15T19:28:31.591Z,11.20
2022-11-15T19:31:15.595Z,11.17
2022-11-15T19:33:43.944Z,11.10
2022-11-15T19:36:13.806Z,11.10
2022-11-15T19:38:41.439Z,11.19
2022-11-15T19:41:22.622Z,11.16
2022-11-15T19:43:52.887Z,11.28
2022-11-15T19:46:21.858Z,11.23
2022-11-15T19:48:49.397Z,10.69
2022-11-15T19:51:19.382Z,11.00
2022-11-15T19:53:47.221Z,11.42
2022-11-15T19:56:16.612Z,11.20
2022-11-15T19:58:44.258Z,10.94
2022-11-15T20:01:20.669Z,10.99
2022-11-15T20:03:48.784Z,11.02
2022-11-15T20:06:17.728Z,10.53
2022-11-15T20:08:45.679Z,10.60
2022-11-15T20:11:13.326Z,10.35
2022-11-15T20:13:40.964Z,10.80
2022-11-15T20:16:15.004Z,10.96
2022-11-15T20:18:42.901Z,11.10
2022-11-15T20:21:10.276Z,11.19
2022-11-15T20:23:38.958Z,11.16
2022-11-15T20:26:07.920Z,11.15
2022-11-15T20:28:36.167Z,10.68
2022-11-15T20:31:03.874Z,10.89
2022-11-15T20:33:31.649Z,11.01
2022-11-15T20:36:02.472Z,11.27
2022-11-15T20:38:29.905Z,11.16
2022-11-15T20:41:00.233Z,10.50
2022-11-15T20:43:27.913Z,10.42
2022-11-15T20:45:55.443Z,10.14
2022-11-15T20:48:23.064Z,10.34
2022-11-15T20:50:50.434Z,10.12
2022-11-15T20:53:19.095Z,10.56
2022-11-15T20:55:48.289Z,10.92
2022-11-15T20:58:15.886Z,10.92
2022-11-15T21:00:44.830Z,11.04
2022-11-15T21:03:13.640Z,11.34
2022-11-15T21:05:43.383Z,11.20
2022-11-15T21:08:11.358Z,10.86
2022-11-15T21:10:58.655Z,10.97
2022-11-15T21:13:26.682Z,10.73
2022-11-15T21:16:00.543Z,11.19
2022-11-15T21:18:27.876Z,10.47
2022-11-15T21:20:55.536Z,10.68
2022-11-15T21:23:22.895Z,10.98
2022-11-15T21:25:51.183Z,10.27
2022-11-15T21:28:18.814Z,10.71
2022-11-15T21:30:54.104Z,10.66
2022-11-15T21:33:23.801Z,11.04
2022-11-15T21:35:51.535Z,11.07
2022-11-15T21:38:18.921Z,10.84
2022-11-15T21:40:46.564Z,11.24
2022-11-15T21:43:13.929Z,11.26
2022-11-15T21:45:41.372Z,11.45
2022-11-15T21:48:09.017Z,11.28
2022-11-15T21:50:36.335Z,11.06
2022-11-15T21:53:03.649Z,10.84
2022-11-15T21:55:31.262Z,11.04
2022-11-15T21:57:58.626Z,11.15
2022-11-15T22:00:52.152Z,10.92
2022-11-15T22:03:19.790Z,10.97
2022-11-15T22:05:47.583Z,11.26
2022-11-15T22:08:14.936Z,11.01
2022-11-15T22:10:46.767Z,11.06
2022-11-15T22:13:14.304Z,11.13
2022-11-15T22:15:45.105Z,11.06
2022-11-15T22:18:12.819Z,10.91
2022-11-15T22:20:44.820Z,10.81
2022-11-15T22:23:12.704Z,10.47
2022-11-15T22:25:40.372Z,10.82
2022-11-15T22:28:07.737Z,10.67
2022-11-15T22:30:35.485Z,10.89
2022-11-15T22:33:02.891Z,11.06
2022-11-15T22:35:30.277Z,10.43
2022-11-15T22:37:57.908Z,10.34
2022-11-15T22:40:25.288Z,10.72
2022-11-15T22:42:52.663Z,10.11
2022-11-15T22:45:20.357Z,10.29
2022-11-15T22:47:47.907Z,10.23
2022-11-15T22:50:15.347Z,10.84
2022-11-15T22:52:43.047Z,10.95
2022-11-15T22:55:10.437Z,11.21
2022-11-15T22:57:40.964Z,11.10
2022-11-15T23:00:13.516Z,10.81
2022-11-15T23:02:40.895Z,9.92
2022-11-15T23:05:08.742Z,10.38
2022-11-15T23:07:36.201Z,10.88
2022-11-15T23:10:23.743Z,10.19
2022-11-15T23:13:10.108Z,9.82
2022-11-15T23:15:56.110Z,10.77
2022-11-15T23:18:23.882Z,10.65
2022-11-15T23:20:51.250Z,11.02
2022-11-15T23:23:18.628Z,10.85
2022-11-15T23:25:46.302Z,11.14
2022-11-15T23:28:13.711Z,11.00
2022-11-15T23:31:00.164Z,10.72
2022-11-15T23:33:46.528Z,10.64
2022-11-15T23:36:13.888Z,9.99
2022-11-15T23:38:41.516Z,10.08
2022-11-15T23:41:08.898Z,10.02
2022-11-15T23:43:36.268Z,10.29
2022-11-15T23:46:03.928Z,10.51
2022-11-15T23:48:31.523Z,10.03
2022-11-15T23:50:59.247Z,10.56
2022-11-15T23:53:26.900Z,10.37
2022-11-15T23:55:58.541Z,10.80
2022-11-15T23:58:25.938Z,10.30
